FW1789 Clearwater Beach FL US current weather conditions

sailwx.info

Wind from 301 at 11 knots gusting 19

Air temperature 12.2° C
Dewpoint 10.5° C

Last reported at 2019-Nov-13 09:03 UTC.
Time now 2019-Nov-13 09:48 UTC

Location: N 27°59' W 082°50'.
View on Google Maps.

See reports from other nearby stations

  
Tides and Currents Weather Stations Pressure Air Temp Water Temp Dewpoint Dewpoint Depression Visibility Wind Speed Wind Dir Waves Ship Positions
date/time (UTC)wind fromknots sea level pressurealtimeterstation pressurevisibilityair tempwater tempwave heightnotes
2019-Nov-13 09:03 301 11 gusting 19 12.2
2019-Nov-13 08:58 130 9 gusting 20 12.2
2019-Nov-13 08:48 108 12 gusting 22 12.2
2019-Nov-13 08:43 054 12 gusting 18 12.2
2019-Nov-13 08:33 020 11 gusting 21 12.2
2019-Nov-13 08:23 061 11 gusting 20 12.2
2019-Nov-13 08:18 017 11 gusting 19 12.8
2019-Nov-13 08:08 355 13 gusting 22 12.8
2019-Nov-13 07:58 035 11 gusting 20 12.8
2019-Nov-13 07:49 018 13 gusting 20 12.8
2019-Nov-13 07:38 044 7 gusting 19 13.3
2019-Nov-13 07:33 150 10 gusting 19 13.3
2019-Nov-13 07:23 038 12 gusting 21 13.9
2019-Nov-13 07:13 005 11 gusting 19 13.9
2019-Nov-13 07:03 023 10 gusting 19 13.9
2019-Nov-13 06:53 350 10 gusting 19 14.4
2019-Nov-13 06:43 350 6 gusting 16 14.4
2019-Nov-13 06:33 327 9 gusting 22 14.4
2019-Nov-13 06:28 336 12 gusting 24 14.4
2019-Nov-13 06:18 337 12 gusting 20 15.0
2019-Nov-13 06:08 355 6 gusting 21 15.6
2019-Nov-13 05:58 360 12 gusting 20 15.6
2019-Nov-13 05:48 355 11 gusting 19 16.1
2019-Nov-13 05:39 005 11 gusting 22 16.7
2019-Nov-13 05:28 005 6 gusting 22 16.7
2019-Nov-13 05:18 333 9 gusting 20 16.7
2019-Nov-13 05:08 321 8 gusting 21 16.7
2019-Nov-13 04:58 360 13 gusting 21 16.7
2019-Nov-13 04:48 005 11 gusting 25 17.2
2019-Nov-13 04:43 315 16 gusting 25 17.2
2019-Nov-13 04:33 328 13 gusting 25 17.2
2019-Nov-13 04:23 325 16 gusting 26 17.2
2019-Nov-13 04:13 338 15 gusting 26 17.8
2019-Nov-13 04:08 325 12 gusting 24 17.8
2019-Nov-13 04:03 316 14 gusting 27 18.3
2019-Nov-13 03:53 317 22 gusting 28 18.3
2019-Nov-13 03:43 333 19 gusting 25 18.9
2019-Nov-13 03:38 309 13 gusting 21 18.9
2019-Nov-13 03:28 335 10 gusting 21 18.9
2019-Nov-13 03:18 326 13 gusting 25 19.4
2019-Nov-13 03:13 320 17 gusting 22 19.4
2019-Nov-13 03:03 338 9 gusting 19 20.0
2019-Nov-13 02:53 319 13 gusting 20 20.0
2019-Nov-13 02:43 305 16 gusting 21 20.0
2019-Nov-13 02:33 340 13 gusting 21 20.6
2019-Nov-13 02:28 319 11 gusting 22 20.6
2019-Nov-13 02:18 302 17 gusting 23 20.6
2019-Nov-13 02:08 315 17 gusting 23 20.6
2019-Nov-13 02:03 315 15 gusting 21 20.6
2019-Nov-13 01:53 311 14 gusting 19 20.6
2019-Nov-13 01:43 302 16 gusting 22 20.6
2019-Nov-13 01:33 331 14 gusting 20 20.6
2019-Nov-13 01:23 312 16 gusting 23 20.6
2019-Nov-13 01:13 310 19 gusting 24 21.1
2019-Nov-13 01:03 327 16 gusting 22 21.1
2019-Nov-13 00:54 315 16 gusting 22 21.1
2019-Nov-13 00:48 316 16 gusting 23 21.1
2019-Nov-13 00:33 317 15 gusting 21 21.7
2019-Nov-13 00:23 345 12 gusting 18 21.7
2019-Nov-13 00:14 316 10 gusting 16 21.7
2019-Nov-13 00:03 021 13 gusting 17 21.7
2019-Nov-12 23:53 338 12 gusting 19 21.7
2019-Nov-12 23:44 347 12 gusting 18 21.7
2019-Nov-12 23:34 338 13 gusting 19 21.7
2019-Nov-12 23:29 346 13 gusting 19 21.7
2019-Nov-12 23:19 328 6 gusting 15 21.7
2019-Nov-12 23:13 320 7 gusting 15 21.7
2019-Nov-12 23:03 360 4 gusting 12 21.7
2019-Nov-12 22:53 014 6 gusting 17 21.7
2019-Nov-12 22:44 307 12 gusting 19 21.7
2019-Nov-12 22:33 321 13 gusting 21 21.7
2019-Nov-12 22:24 344 15 gusting 23 22.2
2019-Nov-12 22:18 330 17 gusting 23 22.2
2019-Nov-12 22:08 323 19 gusting 25 22.8
2019-Nov-12 21:58 283 14 gusting 22 22.8
2019-Nov-12 21:49 272 6 gusting 18 25.6
2019-Nov-12 21:43 239 1 gusting 6 26.1
2019-Nov-12 21:33 233 1 gusting 6 26.1
2019-Nov-12 21:19 263 2 gusting 6 26.1
2019-Nov-12 21:09 257 2 gusting 8 26.1
2019-Nov-12 20:58 202 3 gusting 6 26.7
2019-Nov-12 20:43 217 2 gusting 6 26.7
2019-Nov-12 20:33 280 2 gusting 7 26.7
2019-Nov-12 20:28 259 3 gusting 7 26.7
2019-Nov-12 20:18 251 3 gusting 6 26.7
2019-Nov-12 20:09 256 3 gusting 6 26.7
2019-Nov-12 20:03 256 2 gusting 6 26.7
2019-Nov-12 19:48 225 4 gusting 6 25.6
2019-Nov-12 19:39 211 4 gusting 6 25.6
2019-Nov-12 19:28 205 4 gusting 6 25.0
2019-Nov-12 19:13 220 4 gusting 5 25.0
2019-Nov-12 19:03 213 4 gusting 6 25.0
2019-Nov-12 18:53 202 5 gusting 6 25.0
2019-Nov-12 18:43 206 5 gusting 7 25.0
2019-Nov-12 18:33 205 6 gusting 7 25.0
2019-Nov-12 18:28 229 5 gusting 7 25.0
2019-Nov-12 18:18 198 5 gusting 8 24.4
2019-Nov-12 18:09 203 6 gusting 8 24.4
2019-Nov-12 17:58 204 6 gusting 9 24.4
2019-Nov-12 17:48 207 6 gusting 9 24.4
2019-Nov-12 17:38 205 6 gusting 8 23.9
2019-Nov-12 17:28 198 6 gusting 7 24.4
2019-Nov-12 17:19 195 5 gusting 8 23.9
2019-Nov-12 17:08 199 6 gusting 8 23.9
2019-Nov-12 17:03 203 7 gusting 8 23.9
2019-Nov-12 16:53 196 6 gusting 8 23.9
2019-Nov-12 16:38 205 7 gusting 8 23.9
2019-Nov-12 16:33 204 6 gusting 8 23.3
2019-Nov-12 16:23 200 6 gusting 7 23.9
2019-Nov-12 16:13 202 6 gusting 7 23.9
2019-Nov-12 16:03 201 6 gusting 7 24.4
2019-Nov-12 15:53 188 4 gusting 6 24.4
2019-Nov-12 15:46 192 4 gusting 6 24.4
2019-Nov-12 15:38 190 4 gusting 6 24.4
2019-Nov-12 15:33 207 3 gusting 6 24.4
2019-Nov-12 15:24 180 4 gusting 6 23.9
2019-Nov-12 15:13 198 5 gusting 7 23.9
2019-Nov-12 15:03 206 3 gusting 6 23.3
2019-Nov-12 14:53 194 4 gusting 6 22.8
2019-Nov-12 14:43 208 4 gusting 6 22.8
2019-Nov-12 14:13 190 4 gusting 5 23.9
2019-Nov-12 13:54 123 23.3
2019-Nov-12 13:43 087 0 gusting 6 22.8
2019-Nov-12 13:33 089 2 gusting 7 22.2
2019-Nov-12 13:23 108 3 gusting 7 22.2
2019-Nov-12 13:14 115 5 gusting 7 21.7
2019-Nov-12 13:08 128 3 gusting 7 21.7
2019-Nov-12 12:58 098 6 gusting 7 21.1
2019-Nov-12 12:49 119 5 gusting 7 20.6
2019-Nov-12 12:39 107 5 gusting 6 20.6
2019-Nov-12 12:29 103 6 gusting 7 20.6
2019-Nov-12 12:24 066 5 gusting 7 20.6
2019-Nov-12 12:13 099 5 gusting 6 20.6
2019-Nov-12 12:03 092 2 gusting 5 20.6
2019-Nov-12 11:49 086 4 gusting 6 20.6
2019-Nov-12 11:33 089 1 gusting 5 20.0
2019-Nov-12 11:23 084 2 gusting 6 20.6
2019-Nov-12 11:14 088 4 gusting 6 20.0
2019-Nov-12 11:04 074 4 gusting 6 20.0
2019-Nov-12 10:59 088 2 gusting 6 20.0
2019-Nov-12 10:48 107 5 gusting 7 20.0
2019-Nov-12 10:38 096 4 gusting 6 20.0
2019-Nov-12 10:29 097 3 gusting 6 20.0
2019-Nov-12 10:18 080 3 gusting 6 20.0
2019-Nov-12 10:08 083 3 gusting 6 20.0
2019-Nov-12 09:58 082 2 gusting 6 20.0
2019-Nov-12 09:49 094 5 gusting 6 20.0
2019-Nov-12 09:38 072 3 gusting 6 20.0
2019-Nov-12 09:29 085 4 gusting 6 20.0
2019-Nov-12 09:18 066 1 gusting 4 20.0
2019-Nov-12 09:08 056 1 gusting 4 20.0
2019-Nov-12 08:59 063 2 gusting 6 20.6
2019-Nov-12 08:53 068 2 gusting 6 20.6
2019-Nov-12 08:43 073 4 gusting 7 20.6
2019-Nov-12 08:33 069 4 gusting 6 20.6
2019-Nov-12 08:28 077 4 gusting 6 20.6
2019-Nov-12 08:19 061 1 gusting 4 20.6
2019-Nov-12 08:09 058 0 gusting 3 20.6
2019-Nov-12 07:59 046 1 gusting 3 20.6
2019-Nov-12 07:48 053 20.6
2019-Nov-12 07:38 062 21.1
2019-Nov-12 07:28 052 0 gusting 3 21.1
2019-Nov-12 07:18 081 0 gusting 4 21.1
2019-Nov-12 07:09 067 1 gusting 3 21.1
2019-Nov-12 07:03 061 0 gusting 3 21.1
2019-Nov-12 06:53 068 1 gusting 4 21.1
2019-Nov-12 06:43 068 2 gusting 4 21.1
2019-Nov-12 06:34 069 1 gusting 4 21.1
2019-Nov-12 06:18 080 1 gusting 5 21.1
2019-Nov-12 06:08 057 0 gusting 6 21.1
2019-Nov-12 05:58 067 0 gusting 6 21.1
2019-Nov-12 05:43 055 1 gusting 5 21.1
2019-Nov-12 05:33 053 2 gusting 6 21.1
2019-Nov-12 05:23 063 3 gusting 5 21.1
2019-Nov-12 05:14 066 3 gusting 6 21.1
2019-Nov-12 05:08 074 3 gusting 6 21.1
2019-Nov-12 04:59 068 4 gusting 7 21.1
2019-Nov-12 04:53 076 3 gusting 8 21.1
2019-Nov-12 04:44 080 6 gusting 9 21.1
2019-Nov-12 04:33 069 3 gusting 9 21.1
2019-Nov-12 04:28 092 6 gusting 8 21.1
2019-Nov-12 04:18 078 5 gusting 9 21.1
2019-Nov-12 04:09 050 5 gusting 9 21.1
2019-Nov-12 03:59 075 4 gusting 7 21.1
2019-Nov-12 03:53 073 2 gusting 5 21.1
2019-Nov-12 03:43 078 3 gusting 7 21.1
2019-Nov-12 03:33 040 2 gusting 5 21.1
2019-Nov-12 03:24 051 1 gusting 4 21.7
2019-Nov-12 03:13 060 3 gusting 6 21.7
2019-Nov-12 03:04 057 3 gusting 6 21.7
2019-Nov-12 02:53 035 2 gusting 6 21.7
2019-Nov-12 02:43 072 3 gusting 7 21.7
2019-Nov-12 02:34 051 4 gusting 8 21.7
2019-Nov-12 02:23 061 4 gusting 10 21.7
2019-Nov-12 02:13 064 7 gusting 11 21.7
2019-Nov-12 02:04 005 6 gusting 9 21.7
2019-Nov-12 01:58 360 6 gusting 9 21.7
2019-Nov-12 01:52 012 5 gusting 7 21.7
2019-Nov-12 01:43 009 3 gusting 7 21.7
2019-Nov-12 01:33 013 4 gusting 7 21.7
2019-Nov-12 01:18 360 4 gusting 6 21.7
2019-Nov-12 01:08 005 3 gusting 7 21.7
2019-Nov-12 00:58 005 3 gusting 7 22.2
2019-Nov-12 00:48 350 3 gusting 8 22.2
2019-Nov-12 00:38 005 3 gusting 7 22.2
2019-Nov-12 00:28 005 4 gusting 8 22.2
2019-Nov-12 00:18 355 2 gusting 7 22.2
2019-Nov-12 00:08 344 4 gusting 9 22.2
2019-Nov-11 23:58 345 4 gusting 7 22.2
2019-Nov-11 23:53 360 3 gusting 7 22.2
2019-Nov-11 23:43 317 3 gusting 7 22.2
2019-Nov-11 23:33 316 2 gusting 8 22.2
2019-Nov-11 23:23 330 3 gusting 5 22.2
2019-Nov-11 23:13 005 2 gusting 6 22.2
2019-Nov-11 23:03 360 0 gusting 6 22.8
2019-Nov-11 22:53 005 3 gusting 6 22.8
2019-Nov-11 22:43 360 2 gusting 5 22.8
2019-Nov-11 22:38 005 3 gusting 5 23.3
2019-Nov-11 22:28 009 2 gusting 6 23.3
2019-Nov-11 22:18 021 2 gusting 7 23.9
2019-Nov-11 22:08 029 1 gusting 8 23.9
2019-Nov-11 21:58 311 2 gusting 9 24.4
2019-Nov-11 21:48 350 6 gusting 11 23.9
2019-Nov-11 21:38 334 8 gusting 12 23.9
2019-Nov-11 21:28 309 7 gusting 12 23.9
2019-Nov-11 21:18 346 7 gusting 11 23.9
2019-Nov-11 21:08 316 8 gusting 12 23.9
2019-Nov-11 20:58 275 4 gusting 9 23.9
2019-Nov-11 20:53 327 6 gusting 9 23.3
2019-Nov-11 20:43 275 6 gusting 12 23.9
2019-Nov-11 20:33 315 6 gusting 13 23.9
2019-Nov-11 20:23 327 6 gusting 13 23.9
2019-Nov-11 20:13 321 9 gusting 13 23.9
2019-Nov-11 20:03 317 10 gusting 16 24.4
2019-Nov-11 19:53 311 5 gusting 12 25.0
2019-Nov-11 19:43 313 2 gusting 8 26.1
2019-Nov-11 19:33 317 2 gusting 6 26.7
2019-Nov-11 19:28 129 1 gusting 8 26.1
2019-Nov-11 19:18 102 5 gusting 11 26.1
2019-Nov-11 19:08 077 4 gusting 10 26.7
2019-Nov-11 18:58 111 3 gusting 11 26.1
2019-Nov-11 18:48 079 4 gusting 10 26.1
2019-Nov-11 18:38 096 3 gusting 13 25.6
2019-Nov-11 18:28 078 8 gusting 13 25.6
2019-Nov-11 18:18 076 6 gusting 13 26.1
2019-Nov-11 18:08 129 6 gusting 13 25.6
2019-Nov-11 18:03 092 9 gusting 13 25.6
2019-Nov-11 17:53 069 5 gusting 13 25.6
2019-Nov-11 17:43 092 6 gusting 15 25.6
2019-Nov-11 17:33 100 10 gusting 15 25.6
2019-Nov-11 17:28 089 7 gusting 15 25.6
2019-Nov-11 17:13 078 7 gusting 16 25.6
2019-Nov-11 17:03 085 8 gusting 14 25.6
2019-Nov-11 16:53 067 9 gusting 14 25.0
2019-Nov-11 16:43 086 9 gusting 13 25.0
2019-Nov-11 16:28 094 3 gusting 10 25.0
2019-Nov-11 16:23 074 7 gusting 10 25.6
2019-Nov-11 16:13 095 2 gusting 7 25.0
2019-Nov-11 16:08 036 2 gusting 9 25.0
2019-Nov-11 15:58 115 3 gusting 7 25.0
2019-Nov-11 15:48 085 3 gusting 7 24.4
2019-Nov-11 15:38 019 3 gusting 9 23.9
2019-Nov-11 15:28 071 6 gusting 9 23.9
2019-Nov-11 15:18 084 6 gusting 10 23.3
2019-Nov-11 15:08 052 4 gusting 8 23.3
2019-Nov-11 14:58 064 4 gusting 9 22.8
2019-Nov-11 14:48 067 6 gusting 10 22.8
2019-Nov-11 14:38 082 8 gusting 11 22.2
2019-Nov-11 14:28 074 6 gusting 11 21.7
2019-Nov-11 14:23 070 6 gusting 11 21.7
2019-Nov-11 14:13 068 8 gusting 13 21.1
2019-Nov-11 13:58 074 6 gusting 14 20.6
2019-Nov-11 13:48 088 7 gusting 13 20.6
2019-Nov-11 13:38 093 6 gusting 13 20.0
2019-Nov-11 13:28 086 7 gusting 14 19.4
2019-Nov-11 13:19 082 7 gusting 13 19.4
2019-Nov-11 13:09 077 4 gusting 13 18.9
2019-Nov-11 12:58 120 3 gusting 11 18.9
2019-Nov-11 12:49 069 6 gusting 13 18.3
2019-Nov-11 12:39 076 8 gusting 13 18.3
2019-Nov-11 12:29 082 6 gusting 10 17.8
2019-Nov-11 12:18 085 6 gusting 12 17.8
2019-Nov-11 12:09 080 6 gusting 11 17.8
2019-Nov-11 11:59 046 6 gusting 11 17.8
2019-Nov-11 11:48 079 5 gusting 10 17.8
2019-Nov-11 11:38 088 5 gusting 11 17.8
2019-Nov-11 11:29 087 7 gusting 12 17.8
2019-Nov-11 11:19 059 6 gusting 10 17.2
2019-Nov-11 11:08 080 6 gusting 12 17.8
2019-Nov-11 10:59 088 7 gusting 12 17.2
2019-Nov-11 10:54 074 6 gusting 13 17.8
2019-Nov-11 10:44 073 7 gusting 13 17.2
2019-Nov-11 10:38 074 7 gusting 13 17.2
2019-Nov-11 10:28 077 7 gusting 12 17.2
2019-Nov-11 10:18 079 5 gusting 11 17.2
2019-Nov-11 10:09 046 7 gusting 12 17.2
2019-Nov-11 09:59 084 7 gusting 13 17.2
2019-Nov-11 09:53 048 7 gusting 13 17.2
2019-Nov-11 09:43 084 7 gusting 13 17.2
2019-Nov-11 09:34 078 10 gusting 13 17.2
2019-Nov-11 09:23 077 7 gusting 11 17.2
2019-Nov-11 09:14 088 6 gusting 12 17.2
2019-Nov-11 09:04 076 6 gusting 13 17.2